Autoridad de Aeronautica Civil de Panamá


metar




ESTACIONES DESCRIPCION
MPTO (M) 011200Z VRB02KT 9999 SCT016 SCT080 24/23 Q1009 NOSIG RMK ST N/W=  
MPBO (M)  
MPCH (M)  
MPSA (M) 302100Z 12006KT 8000 VCSH SCT015TCU BKN030 26/23 Q1008 RMK TCU ALQDS PCPN SE-SW  
MPCE (M)  
MPPN (M) 011200Z 00000KT 9999 SCT012TCU 22/22 RMK TCU SE/SW=  
MPSM (M) 302000Z E04003KT 9999 FEW020 BKN150 26/23 Q1007 RWY DAMP  
MPJE (M)  
MPPA (M)  
MPMG (M) 011400Z 00000KT 9000 FEW018TCU SCT090 27/25 Q1011 NOSIG RMK TCU SE-S HZ ALQDS  
MPDA (M)  
MPVR (M) =  
MPWN FUERA DE SERVICIO  
MPOA (M)  
MPMF (M) =  
MPEJ (M) 011200Z 00000KT 9999 SCT020 24/23 Q1012=  


 

CLIMATICAS

MPTO

 

30 SEPTIEMBRE 2020

 

PCPN (mm)

T° MAX

T° MIN

VIENTO MAX (KT)

HORA

VIENTO PREDOM (KT)

49.5

 27.3

23.0

29006KT

1200Z

S05KT

 

 

CLIMATICAS

MPMG

29- SEPTIEMBRE - 2020

PCPN (mm)

T° MAX

T° MIN

VIENTO MAX (KT)

HORA

VIENTO PREDOM (KT)

0.0

30.8

24.3

31010KT

2000Z

NW

 



Contador: 26775